KAL767 UZTT-RKSI
Flight info
| Callsign | KAL767 |
|---|---|
| Flight time | N/A |
| Altitude | 37000 |
| Route | TISIB2C TISIB P984 IZIMA L135 TIRBA M610 RULAD/K0896S1130 A343 POSOT B215 FKG W188 LIKMI W270 DKO W69 MOSPA/K0885S1190 W69 HUR B339 LADIX W34 VAPGU W100 ORAVA W201 UNSEK A326 DONVO G597 AGAVO/N0485F390 Y644 REBIT REBIT2H |
| Aircraft | B77W/H-SDE1E2E3FGHIJ2J3J4J5M1RWXY/LB1D1 |
Departure
| Time | N/A |
|---|---|
| Airport | Tashkent International Airport (UZTT) |
Arrival
| Time | 2026-05-04 16:30 |
|---|---|
| Airport | Incheon International Airport (RKSI) |
| Time | Latitude | Longitude | Altitude | Speed | Heading |
|---|---|---|---|---|---|
| 2026-05-04 14:41 | 40.63963 | 110.90586 | 37009 ft | 495 kts | 87° |
| 2026-05-04 14:42 | 40.63855 | 110.99621 | 37004 ft | 494 kts | 86° |
| 2026-05-04 14:42 | 40.63742 | 111.08607 | 36992 ft | 494 kts | 86° |
| 2026-05-04 14:43 | 40.63620 | 111.17622 | 36976 ft | 494 kts | 86° |
| 2026-05-04 14:43 | 40.63493 | 111.26627 | 36961 ft | 494 kts | 86° |
| 2026-05-04 14:44 | 40.63358 | 111.35668 | 36958 ft | 493 kts | 86° |
| 2026-05-04 14:44 | 40.63217 | 111.44639 | 36960 ft | 493 kts | 86° |
| 2026-05-04 14:45 | 40.63069 | 111.53619 | 36961 ft | 493 kts | 86° |
| 2026-05-04 14:45 | 40.62913 | 111.62637 | 36963 ft | 493 kts | 86° |
| 2026-05-04 14:46 | 40.62751 | 111.71622 | 36961 ft | 493 kts | 87° |
| 2026-05-04 14:46 | 40.62581 | 111.80637 | 36964 ft | 493 kts | 87° |
| 2026-05-04 14:47 | 40.62405 | 111.89597 | 36973 ft | 486 kts | 87° |
| 2026-05-04 14:47 | 40.62244 | 111.98504 | 36989 ft | 494 kts | 87° |
| 2026-05-04 14:48 | 40.62038 | 112.07571 | 37009 ft | 493 kts | 87° |
| 2026-05-04 14:48 | 40.61838 | 112.16497 | 37044 ft | 493 kts | 87° |
| 2026-05-04 14:49 | 40.61630 | 112.25520 | 37073 ft | 493 kts | 87° |
| 2026-05-04 14:49 | 40.61418 | 112.34489 | 37067 ft | 492 kts | 87° |
| 2026-05-04 14:50 | 40.61195 | 112.43501 | 37050 ft | 492 kts | 87° |
| 2026-05-04 14:50 | 40.60922 | 112.52486 | 37031 ft | 494 kts | 89° |
| 2026-05-04 14:51 | 40.60485 | 112.59987 | 37027 ft | 494 kts | 90° |
| 2026-05-04 14:51 | 40.59860 | 112.70541 | 37022 ft | 495 kts | 90° |
| 2026-05-04 14:52 | 40.59194 | 112.79526 | 37020 ft | 496 kts | 93° |
| 2026-05-04 14:52 | 40.58517 | 112.88504 | 37021 ft | 495 kts | 91° |
| 2026-05-04 14:53 | 40.57920 | 112.97508 | 37021 ft | 495 kts | 91° |
| 2026-05-04 14:53 | 40.57317 | 113.06505 | 37020 ft | 495 kts | 91° |
| 2026-05-04 14:54 | 40.56705 | 113.15535 | 37019 ft | 495 kts | 91° |
| 2026-05-04 14:54 | 40.56090 | 113.24502 | 37019 ft | 495 kts | 91° |
| 2026-05-04 14:55 | 40.55467 | 113.33492 | 37024 ft | 494 kts | 91° |
| 2026-05-04 14:55 | 40.54835 | 113.42512 | 37033 ft | 494 kts | 91° |
| 2026-05-04 14:56 | 40.54198 | 113.51489 | 37043 ft | 494 kts | 91° |
| 2026-05-04 14:56 | 40.53554 | 113.60474 | 37056 ft | 494 kts | 91° |
| 2026-05-04 14:57 | 40.52900 | 113.69495 | 37068 ft | 495 kts | 92° |
| 2026-05-04 14:57 | 40.52242 | 113.78460 | 37083 ft | 495 kts | 92° |
| 2026-05-04 14:58 | 40.51582 | 113.87378 | 37091 ft | 495 kts | 92° |
| 2026-05-04 14:58 | 40.51020 | 113.94899 | 37096 ft | 495 kts | 92° |
| 2026-05-04 14:59 | 40.50373 | 114.05337 | 37093 ft | 494 kts | 89° |
| 2026-05-04 14:59 | 40.50024 | 114.14336 | 36941 ft | 494 kts | 89° |
| 2026-05-04 15:00 | 40.49844 | 114.18810 | 36820 ft | 494 kts | 89° |
| 2026-05-04 15:00 | 40.49657 | 114.23299 | 36707 ft | 493 kts | 90° |
| 2026-05-04 15:00 | 40.49470 | 114.27745 | 36594 ft | 494 kts | 90° |
| 2026-05-04 15:01 | 40.49079 | 114.36769 | 36320 ft | 494 kts | 90° |
| 2026-05-04 15:01 | 40.48882 | 114.41251 | 36181 ft | 494 kts | 90° |
| 2026-05-04 15:01 | 40.48680 | 114.45757 | 36058 ft | 493 kts | 90° |
| 2026-05-04 15:01 | 40.48480 | 114.50194 | 36042 ft | 492 kts | 90° |
| 2026-05-04 15:02 | 40.48067 | 114.59198 | 35929 ft | 494 kts | 90° |
| 2026-05-04 15:02 | 40.47648 | 114.68169 | 35783 ft | 494 kts | 90° |
| 2026-05-04 15:03 | 40.47220 | 114.77191 | 35654 ft | 494 kts | 90° |
| 2026-05-04 15:03 | 40.46787 | 114.86145 | 35787 ft | 493 kts | 90° |
| 2026-05-04 15:04 | 40.46348 | 114.95075 | 35988 ft | 490 kts | 89° |
| 2026-05-04 15:04 | 40.46128 | 114.99514 | 36201 ft | 489 kts | 89° |
| 2026-05-04 15:04 | 40.45906 | 115.03956 | 36424 ft | 491 kts | 89° |
| 2026-05-04 15:05 | 40.45681 | 115.08421 | 36597 ft | 491 kts | 89° |
| 2026-05-04 15:05 | 40.45454 | 115.12872 | 36668 ft | 492 kts | 89° |
| 2026-05-04 15:05 | 40.44994 | 115.21827 | 36773 ft | 491 kts | 89° |
| 2026-05-04 15:06 | 40.44528 | 115.30755 | 36791 ft | 493 kts | 90° |
| 2026-05-04 15:07 | 40.43808 | 115.44295 | 37256 ft | 495 kts | 90° |
| 2026-05-04 15:07 | 40.43568 | 115.48731 | 37672 ft | 491 kts | 90° |
| 2026-05-04 15:07 | 40.43325 | 115.53199 | 37947 ft | 491 kts | 90° |
| 2026-05-04 15:07 | 40.43016 | 115.57654 | 38082 ft | 496 kts | 92° |
| 2026-05-04 15:08 | 40.42643 | 115.62224 | 38032 ft | 498 kts | 92° |
| 2026-05-04 15:08 | 40.41902 | 115.71161 | 37930 ft | 497 kts | 92° |
| 2026-05-04 15:09 | 40.41161 | 115.80132 | 37912 ft | 495 kts | 92° |
| 2026-05-04 15:09 | 40.40785 | 115.84681 | 38043 ft | 495 kts | 92° |
| 2026-05-04 15:09 | 40.40416 | 115.89139 | 38244 ft | 496 kts | 92° |
| 2026-05-04 15:10 | 40.39670 | 115.98088 | 38639 ft | 497 kts | 93° |
| 2026-05-04 15:10 | 40.39290 | 116.02614 | 38837 ft | 497 kts | 93° |
| 2026-05-04 15:10 | 40.38531 | 116.11609 | 38971 ft | 500 kts | 93° |
| 2026-05-04 15:11 | 40.38145 | 116.16139 | 38967 ft | 499 kts | 93° |
| 2026-05-04 15:11 | 40.37371 | 116.25190 | 38948 ft | 499 kts | 93° |
| 2026-05-04 15:12 | 40.36598 | 116.34149 | 38946 ft | 499 kts | 93° |
| 2026-05-04 15:12 | 40.35809 | 116.43217 | 38949 ft | 499 kts | 93° |
| 2026-05-04 15:13 | 40.35009 | 116.52275 | 38959 ft | 500 kts | 95° |
| 2026-05-04 15:13 | 40.33071 | 116.61058 | 38966 ft | 506 kts | 113° |
| 2026-05-04 15:14 | 40.29219 | 116.68727 | 38964 ft | 510 kts | 131° |
| 2026-05-04 15:14 | 40.23757 | 116.74644 | 38963 ft | 511 kts | 150° |
| 2026-05-04 15:15 | 40.17214 | 116.78183 | 38964 ft | 508 kts | 168° |
| 2026-05-04 15:15 | 40.10279 | 116.79640 | 38966 ft | 506 kts | 174° |
| 2026-05-04 15:16 | 39.99822 | 116.81589 | 38966 ft | 506 kts | 174° |
| 2026-05-04 15:17 | 39.89352 | 116.83616 | 38947 ft | 505 kts | 173° |
| 2026-05-04 15:17 | 39.78962 | 116.85658 | 38962 ft | 504 kts | 173° |
| 2026-05-04 15:18 | 39.72015 | 116.87089 | 38964 ft | 504 kts | 173° |
| 2026-05-04 15:19 | 39.61691 | 116.89225 | 38964 ft | 503 kts | 173° |
| 2026-05-04 15:19 | 39.51282 | 116.91373 | 38966 ft | 503 kts | 173° |
| 2026-05-04 15:20 | 39.44368 | 116.92795 | 38967 ft | 503 kts | 173° |
| 2026-05-04 15:20 | 39.37446 | 116.94215 | 38970 ft | 502 kts | 173° |
| 2026-05-04 15:21 | 39.30544 | 116.95629 | 38974 ft | 502 kts | 173° |
| 2026-05-04 15:21 | 39.23787 | 116.97893 | 38973 ft | 506 kts | 158° |
| 2026-05-04 15:22 | 39.20633 | 116.99967 | 38974 ft | 507 kts | 149° |
| 2026-05-04 15:22 | 39.13115 | 117.09300 | 38985 ft | 506 kts | 122° |
| 2026-05-04 15:23 | 39.10167 | 117.17497 | 38987 ft | 506 kts | 104° |
| 2026-05-04 15:23 | 39.08944 | 117.26336 | 38991 ft | 504 kts | 96° |
| 2026-05-04 15:24 | 39.07681 | 117.44250 | 38997 ft | 502 kts | 87° |
| 2026-05-04 15:25 | 39.07639 | 117.53181 | 38996 ft | 502 kts | 88° |
| 2026-05-04 15:26 | 39.07520 | 117.66679 | 38995 ft | 502 kts | 89° |
| 2026-05-04 15:26 | 39.07361 | 117.80048 | 38899 ft | 494 kts | 89° |
| 2026-05-04 15:27 | 39.07179 | 117.93366 | 38892 ft | 500 kts | 89° |
| 2026-05-04 15:28 | 39.06497 | 118.06790 | 38893 ft | 505 kts | 99° |
| 2026-05-04 15:29 | 39.04417 | 118.20036 | 38899 ft | 506 kts | 99° |
| 2026-05-04 15:30 | 38.99458 | 118.50977 | 38904 ft | 507 kts | 99° |
| 2026-05-04 15:31 | 38.97300 | 118.64281 | 38908 ft | 507 kts | 99° |
| 2026-05-04 15:32 | 38.93673 | 118.86395 | 38908 ft | 508 kts | 101° |
| 2026-05-04 15:34 | 38.90012 | 119.08453 | 38915 ft | 508 kts | 100° |
| 2026-05-04 15:34 | 38.87785 | 119.21753 | 38918 ft | 508 kts | 100° |
| 2026-05-04 15:35 | 38.85550 | 119.34975 | 38935 ft | 508 kts | 101° |
| 2026-05-04 15:36 | 38.83298 | 119.48199 | 38941 ft | 508 kts | 101° |
| 2026-05-04 15:36 | 38.81781 | 119.57052 | 38944 ft | 508 kts | 101° |
| 2026-05-04 15:37 | 38.80263 | 119.65876 | 38947 ft | 508 kts | 101° |
| 2026-05-04 15:37 | 38.78728 | 119.74751 | 38946 ft | 509 kts | 101° |
| 2026-05-04 15:38 | 38.77196 | 119.83567 | 38949 ft | 509 kts | 101° |
| 2026-05-04 15:38 | 38.75734 | 119.92398 | 38953 ft | 509 kts | 101° |
| 2026-05-04 15:39 | 38.74273 | 120.01213 | 38956 ft | 510 kts | 101° |
| 2026-05-04 15:39 | 38.71909 | 120.09729 | 38943 ft | 511 kts | 118° |
| 2026-05-04 15:40 | 38.70005 | 120.13586 | 38944 ft | 511 kts | 127° |
| 2026-05-04 15:40 | 38.65191 | 120.20266 | 38965 ft | 511 kts | 131° |
| 2026-05-04 15:41 | 38.61386 | 120.27870 | 38971 ft | 512 kts | 112° |
| 2026-05-04 15:41 | 38.59349 | 120.36540 | 38974 ft | 511 kts | 101° |
| 2026-05-04 15:42 | 38.57808 | 120.45460 | 38972 ft | 511 kts | 101° |
| 2026-05-04 15:42 | 38.56320 | 120.54259 | 38974 ft | 511 kts | 101° |
| 2026-05-04 15:43 | 38.54855 | 120.63132 | 38979 ft | 511 kts | 100° |
| 2026-05-04 15:43 | 38.53409 | 120.71983 | 38976 ft | 511 kts | 101° |
| 2026-05-04 15:44 | 38.51957 | 120.80856 | 38976 ft | 511 kts | 101° |
| 2026-05-04 15:44 | 38.50502 | 120.89709 | 38976 ft | 511 kts | 101° |
| 2026-05-04 15:45 | 38.49047 | 120.98535 | 38976 ft | 511 kts | 101° |
| 2026-05-04 15:45 | 38.47576 | 121.07423 | 38976 ft | 511 kts | 101° |
| 2026-05-04 15:46 | 38.46096 | 121.16324 | 38976 ft | 511 kts | 101° |
| 2026-05-04 15:46 | 38.44663 | 121.25137 | 38976 ft | 511 kts | 101° |
| 2026-05-04 15:47 | 38.43234 | 121.33997 | 38976 ft | 512 kts | 100° |
| 2026-05-04 15:47 | 38.41793 | 121.42898 | 38976 ft | 512 kts | 101° |
| 2026-05-04 15:48 | 38.40339 | 121.51755 | 38977 ft | 513 kts | 101° |
| 2026-05-04 15:48 | 38.38111 | 121.65104 | 38978 ft | 513 kts | 101° |
| 2026-05-04 15:49 | 38.36624 | 121.73957 | 38971 ft | 513 kts | 102° |
| 2026-05-04 15:49 | 38.35126 | 121.82861 | 38973 ft | 513 kts | 102° |
| 2026-05-04 15:50 | 38.33611 | 121.91766 | 38978 ft | 514 kts | 102° |
| 2026-05-04 15:50 | 38.32087 | 122.00687 | 38977 ft | 514 kts | 102° |
| 2026-05-04 15:51 | 38.30567 | 122.09585 | 38976 ft | 515 kts | 102° |
| 2026-05-04 15:51 | 38.29034 | 122.18507 | 38981 ft | 515 kts | 102° |
| 2026-05-04 15:52 | 38.27512 | 122.27377 | 38982 ft | 515 kts | 100° |
| 2026-05-04 15:52 | 38.26256 | 122.36295 | 38985 ft | 515 kts | 101° |
| 2026-05-04 15:53 | 38.23871 | 122.44886 | 38982 ft | 514 kts | 119° |
| 2026-05-04 15:53 | 38.19687 | 122.52116 | 38989 ft | 510 kts | 135° |
| 2026-05-04 15:54 | 38.14730 | 122.58585 | 38994 ft | 510 kts | 136° |
| 2026-05-04 15:54 | 38.09758 | 122.64982 | 38996 ft | 511 kts | 136° |
| 2026-05-04 15:55 | 38.04776 | 122.71454 | 38992 ft | 511 kts | 136° |
| 2026-05-04 15:55 | 37.99813 | 122.77895 | 38992 ft | 511 kts | 136° |
| 2026-05-04 15:56 | 37.94869 | 122.84290 | 38993 ft | 511 kts | 136° |
| 2026-05-04 15:56 | 37.89897 | 122.90736 | 38980 ft | 512 kts | 137° |
| 2026-05-04 15:57 | 37.84938 | 122.97143 | 38985 ft | 512 kts | 136° |
| 2026-05-04 15:57 | 37.79922 | 123.03594 | 39000 ft | 512 kts | 137° |
| 2026-05-04 15:58 | 37.74943 | 123.09986 | 39004 ft | 513 kts | 137° |
| 2026-05-04 15:58 | 37.69931 | 123.16407 | 39018 ft | 513 kts | 137° |
| 2026-05-04 15:59 | 37.64930 | 123.22800 | 39042 ft | 513 kts | 137° |
| 2026-05-04 15:59 | 37.59944 | 123.29175 | 39053 ft | 514 kts | 137° |
| 2026-05-04 16:00 | 37.55133 | 123.35880 | 39068 ft | 517 kts | 129° |
| 2026-05-04 16:00 | 37.50823 | 123.43118 | 39062 ft | 518 kts | 129° |
| 2026-05-04 16:01 | 37.46503 | 123.50391 | 39064 ft | 518 kts | 129° |
| 2026-05-04 16:01 | 37.42175 | 123.57652 | 39068 ft | 519 kts | 129° |
| 2026-05-04 16:02 | 37.37855 | 123.64896 | 39070 ft | 519 kts | 129° |
| 2026-05-04 16:03 | 37.31325 | 123.75768 | 39070 ft | 518 kts | 130° |
| 2026-05-04 16:03 | 37.26981 | 123.82964 | 39072 ft | 518 kts | 130° |
| 2026-05-04 16:04 | 37.22664 | 123.90110 | 39078 ft | 518 kts | 130° |
| 2026-05-04 16:04 | 37.18963 | 123.97913 | 39082 ft | 524 kts | 113° |
| 2026-05-04 16:04 | 37.17829 | 124.02223 | 39085 ft | 526 kts | 104° |
| 2026-05-04 16:05 | 37.17112 | 124.11353 | 39087 ft | 528 kts | 88° |
| 2026-05-04 16:06 | 37.17603 | 124.25114 | 38907 ft | 523 kts | 87° |
| 2026-05-04 16:06 | 37.17930 | 124.37421 | 36598 ft | 545 kts | 88° |
| 2026-05-04 16:07 | 37.18083 | 124.43780 | 35330 ft | 551 kts | 88° |
| 2026-05-04 16:07 | 37.18406 | 124.57816 | 33502 ft | 520 kts | 87° |
| 2026-05-04 16:08 | 37.18507 | 124.62270 | 33231 ft | 508 kts | 86° |
| 2026-05-04 16:08 | 37.18798 | 124.75542 | 30574 ft | 516 kts | 87° |
| 2026-05-04 16:09 | 37.18982 | 124.84380 | 29546 ft | 498 kts | 87° |
| 2026-05-04 16:09 | 37.19151 | 124.92886 | 28160 ft | 483 kts | 87° |
| 2026-05-04 16:10 | 37.19315 | 125.01195 | 26533 ft | 470 kts | 87° |
| 2026-05-04 16:11 | 37.19532 | 125.13177 | 23851 ft | 450 kts | 86° |
| 2026-05-04 16:11 | 37.19599 | 125.17034 | 22949 ft | 443 kts | 86° |
| 2026-05-04 16:12 | 37.19766 | 125.28223 | 20602 ft | 411 kts | 86° |
| 2026-05-04 16:12 | 37.19946 | 125.39170 | 18763 ft | 420 kts | 87° |
| 2026-05-04 16:13 | 37.20271 | 125.46372 | 17478 ft | 410 kts | 77° |
| 2026-05-04 16:13 | 37.22270 | 125.52855 | 16430 ft | 393 kts | 58° |
| 2026-05-04 16:14 | 37.25055 | 125.58678 | 15616 ft | 390 kts | 57° |
| 2026-05-04 16:14 | 37.27858 | 125.64454 | 14764 ft | 386 kts | 56° |
| 2026-05-04 16:15 | 37.31803 | 125.73154 | 14013 ft | 385 kts | 68° |
| 2026-05-04 16:16 | 37.32731 | 125.79698 | 13313 ft | 380 kts | 89° |
| 2026-05-04 16:16 | 37.31370 | 125.89429 | 11300 ft | 375 kts | 108° |
| 2026-05-04 16:17 | 37.29059 | 125.95170 | 10359 ft | 358 kts | 110° |
| 2026-05-04 16:18 | 37.27674 | 126.03731 | 8950 ft | 315 kts | 98° |
| 2026-05-04 16:18 | 37.27334 | 126.06381 | 8492 ft | 305 kts | 96° |
| 2026-05-04 16:19 | 37.29579 | 126.12907 | 7247 ft | 277 kts | 24° |
| 2026-05-04 16:19 | 37.33132 | 126.13010 | 6823 ft | 250 kts | 334° |
| 2026-05-04 16:20 | 37.35799 | 126.07858 | 6096 ft | 240 kts | 307° |
| 2026-05-04 16:20 | 37.38440 | 126.05292 | 5632 ft | 240 kts | 323° |
| 2026-05-04 16:21 | 37.42546 | 126.01759 | 4946 ft | 237 kts | 328° |
| 2026-05-04 16:22 | 37.45789 | 126.01505 | 4441 ft | 245 kts | 19° |
| 2026-05-04 16:22 | 37.49213 | 126.06222 | 3773 ft | 245 kts | 53° |
| 2026-05-04 16:23 | 37.52195 | 126.11468 | 3240 ft | 245 kts | 53° |
| 2026-05-04 16:24 | 37.56136 | 126.18406 | 2530 ft | 244 kts | 53° |
| 2026-05-04 16:25 | 37.58108 | 126.21884 | 2172 ft | 243 kts | 53° |
| 2026-05-04 16:26 | 37.60163 | 126.29381 | 1596 ft | 237 kts | 113° |
| 2026-05-04 16:26 | 37.56816 | 126.33114 | 1601 ft | 189 kts | 148° |
| 2026-05-04 16:27 | 37.54832 | 126.34862 | 1597 ft | 160 kts | 148° |
| 2026-05-04 16:28 | 37.52238 | 126.37165 | 1262 ft | 148 kts | 147° |
| 2026-05-04 16:28 | 37.49741 | 126.39379 | 677 ft | 145 kts | 146° |
| 2026-05-04 16:29 | 37.46547 | 126.42200 | 35 ft | 122 kts | 144° |
| 2026-05-04 16:30 | 37.45605 | 126.43148 | 35 ft | 28 kts | 116° |
| 2026-05-04 16:31 | 37.45587 | 126.43195 | 35 ft | 0 kts | 114° |
| 2026-05-04 16:31 | 37.45506 | 126.43385 | 35 ft | 27 kts | 127° |
| 2026-05-04 16:32 | 37.45423 | 126.43664 | 35 ft | 10 kts | 81° |
| 2026-05-04 16:33 | 37.45430 | 126.43801 | 35 ft | 8 kts | 122° |
| 2026-05-04 16:33 | 37.45519 | 126.44032 | 35 ft | 15 kts | 54° |
| 2026-05-04 16:34 | 37.45595 | 126.44166 | 34 ft | 2 kts | 53° |
| 2026-05-04 16:34 | 37.45607 | 126.44196 | 35 ft | 3 kts | 98° |
| 2026-05-04 16:35 | 37.45552 | 126.44266 | 35 ft | 2 kts | 144° |
| 2026-05-04 16:35 | 37.45548 | 126.44269 | 35 ft | 0 kts | 144° |